Latest Coastal Weather Observations for Geelong Racecourse

IDV60701

Issued at 11:31 am EST Monday 2 May 2016 (issued every 10 minutes, with the page automatically refreshed every 10 minutes)

About coastal observations | Map of coastal stations | Coastal observations for VIC | Marine services | Other Formats
Station Details ID: 087184 Name: GEELONG RACECOURSE Lat: -38.17 Lon: 144.38 Height: 12.9 m
Data from the previous 72 hours. | See also: Recent months at Geelong Racecourse
Date/Time
EST
Temp

°C
Wind Pressure Rain
since 9am
mm
Weather Cloud Vis
km
Sea
Height
m
Swell
Dir
 
Speed
knots
Gust
knots
hPa Trend Height
m
Period
s
Dir
02/11:30am 17.4 NNW 12 22 1010.6 - 0.0 - - - - - - -
02/11:00am 16.3 NNW 16 24 1010.6 - 0.0 - - - - - - -
02/10:30am 15.5 NNW 13 20 1011.3 - 0.0 - - - - - - -
02/10:00am 14.3 NNW 10 15 1011.7 - 0.0 - - - - - - -
02/09:30am 13.7 NW 8 16 1012.0 - 0.0 - - - - - - -
02/09:00am 11.9 NW 6 9 1012.2 - 0.2 - - - - - - -
02/08:30am 11.0 NW 7 10 1012.6 - 0.2 - - - - - - -
02/08:00am 10.5 NNW 8 12 1012.6 - 0.2 - - - - - - -
02/07:30am 9.4 NW 6 9 1012.5 - 0.2 - - - - - - -
02/07:00am 9.2 NW 6 9 1012.5 - 0.2 - - - - - - -
02/06:30am 8.6 NW 5 7 1012.5 - 0.2 - - - - - - -
02/06:00am 8.2 NW 6 8 1012.6 - 0.2 - - - - - - -
02/05:30am 8.8 NW 7 10 1012.7 - 0.2 - - - - - - -
02/05:00am 9.2 NW 10 12 1012.7 - 0.2 - - - - - - -
02/04:30am 8.9 NW 10 13 1012.3 - 0.2 - - - - - - -
02/04:00am 9.1 NW 9 13 1012.3 - 0.2 - - - - - - -
02/03:30am 9.0 NW 8 11 1012.8 - 0.2 - - - - - - -
02/03:00am 9.1 NW 5 9 1013.1 - 0.2 - - - - - - -
02/02:30am 8.3 NNW 1 3 1013.6 - 0.2 - - - - - - -
02/02:00am 9.0 NW 4 7 1013.9 - 0.2 - - - - - - -
02/01:30am 8.9 NW 5 8 1014.1 - 0.2 - - - - - - -
02/01:00am 8.9 NW 6 8 1014.1 - 0.2 - - - - - - -
02/12:30am 8.7 NNW 2 5 1014.6 - 0.2 - - - - - - -
02/12:00am 8.7 WNW 2 3 1014.9 - 0.2 - - - - - - -
 
Date/Time
EST
Temp

°C
Wind Pressure Rain
since 9am
mm
Weather Cloud Vis
km
Sea
Height
m
Swell
Dir
 
Speed
knots
Gust
knots
hPa Trend Height
m
Period
s
Dir
01/11:30pm 9.1 NW 3 5 1015.0 - 0.2 - - - - - - -
01/11:00pm 9.6 NW 5 8 1015.2 - 0.2 - - - - - - -
01/10:30pm 9.4 NW 5 6 1015.3 - 0.2 - - - - - - -
01/10:00pm 9.4 NW 3 5 1015.4 - 0.2 - - - - - - -
01/09:30pm 10.1 NW 2 4 1015.1 - 0.2 - - - - - - -
01/09:00pm 10.4 NW 6 9 1015.0 - 0.2 - - - - - - -
01/08:30pm 10.4 NW 6 10 1014.8 - 0.2 - - - - - - -
01/08:00pm 10.6 NW 8 12 1014.5 - 0.2 - - - - - - -
01/07:30pm 10.7 NW 6 9 1014.1 - 0.2 - - - - - - -
01/07:00pm 10.8 NW 5 7 1014.0 - 0.2 - - - - - - -
01/06:30pm 11.5 W 4 8 1013.5 - 0.2 - - - - - - -
01/06:00pm 11.9 WNW 7 10 1013.2 - 0.2 - - - - - - -
01/05:30pm 12.2 W 10 15 1012.5 - 0.2 - - - - - - -
01/05:00pm 12.8 W 12 21 1012.1 - 0.2 - - - - - - -
01/04:30pm 13.4 WNW 13 19 1011.8 - 0.2 - - - - - - -
01/04:00pm 13.8 WNW 10 18 1011.2 - 0.2 - - - - - - -
01/03:30pm 13.0 WNW 11 18 1011.0 - 0.2 - - - - - - -
01/03:00pm 11.7 WNW 15 25 1010.9 - 0.2 - - - - - - -
01/02:49pm 12.6 WNW 16 32 1010.6 - 0.2 - - - - - - -
01/02:30pm 13.5 WNW 15 24 1010.0 - 0.2 - - - - - - -
01/02:03pm 14.8 W 15 25 1009.4 - 0.2 - - - - - - -
01/02:00pm 14.7 W 15 21 1009.4 - 0.2 - - - - - - -
01/01:30pm 14.4 WNW 16 25 1009.0 - 0.2 - - - - - - -
01/01:04pm 14.4 W 15 28 1008.8 - 0.2 - - - - - - -
01/01:00pm 14.2 W 15 24 1008.8 - 0.2 - - - - - - -
01/12:30pm 12.9 WNW 13 19 1009.0 - 0.2 - - - - - - -
01/12:02pm 12.5 W 15 26 1009.3 - 0.0 - - - - - - -
01/12:00pm 12.6 WNW 14 24 1009.2 - 0.0 - - - - - - -
01/11:30am 13.0 WNW 13 21 1008.6 - 0.0 - - - - - - -
01/11:00am 12.1 WNW 16 29 1008.5 - 0.0 - - - - - - -
01/10:30am 13.9 WNW 17 30 1007.6 - 0.0 - - - - - - -
01/10:00am 13.8 WNW 16 26 1006.7 - 0.0 - - - - - - -
01/09:30am 14.4 WNW 17 29 1006.0 - 0.0 - - - - - - -
01/09:00am 13.4 NW 17 28 1005.2 - 13.0 - - - - - - -
01/08:53am 12.9 NW 16 28 1005.0 - 13.0 - - - - - - -
01/08:30am 12.3 NW 12 22 1004.9 - 13.0 - - - - - - -
01/08:00am 11.1 NW 11 17 1004.6 - 13.0 - - - - - - -
01/07:33am 14.3 NW 15 31 1004.0 - 11.8 - - - - - - -
01/07:30am 14.5 NW 12 21 1004.0 - 11.8 - - - - - - -
01/07:00am 14.7 NW 10 16 1003.2 - 11.8 - - - - - - -
01/06:30am 14.8 NNW 8 11 1002.9 - 11.8 - - - - - - -
01/06:00am 15.1 NNW 9 12 1002.4 - 11.8 - - - - - - -
01/05:30am 15.5 NNW 9 13 1002.2 - 11.8 - - - - - - -
01/05:00am 15.5 NNW 10 15 1002.1 - 11.8 - - - - - - -
01/04:30am 15.1 NNW 6 8 1001.8 - 11.8 - - - - - - -
01/04:00am 15.2 NNW 5 8 1001.5 - 11.8 - - - - - - -
01/03:30am 15.6 NW 13 20 1003.0 - 11.8 - - - - - - -
01/03:00am 16.1 NNW 9 13 1002.6 - 10.2 Rain - - - - - -
01/02:30am 16.3 NNW 15 22 1003.2 - 7.6 - - - - - - -
01/02:00am 15.8 NNW 8 13 1003.3 - 5.6 - - - - - - -
01/01:30am 17.9 NW 14 39 1004.4 - 0.4 - - - - - - -
01/01:00am 20.7 N 13 21 1003.4 - 0.0 - - - - - - -
01/12:39am 20.5 N 15 26 1003.6 - 0.0 - - - - - - -
01/12:30am 20.3 N 12 20 1003.7 - 0.0 - - - - - - -
01/12:00am 19.4 NNE 9 14 1004.0 - 0.0 - - - - - - -
 
Date/Time
EST
Temp

°C
Wind Pressure Rain
since 9am
mm
Weather Cloud Vis
km
Sea
Height
m
Swell
Dir
 
Speed
knots
Gust
knots
hPa Trend Height
m
Period
s
Dir
30/11:30pm 19.9 NNE 11 18 1005.1 - 0.0 - - - - - - -
30/11:00pm 18.5 NNE 7 10 1006.2 - 0.0 - - - - - - -
30/10:30pm 18.2 NNE 6 9 1007.1 - 0.0 - - - - - - -
30/10:00pm 18.4 NNE 8 11 1008.0 - 0.0 - - - - - - -
30/09:30pm 17.8 NNE 6 9 1008.1 - 0.0 - - - - - - -
30/09:00pm 17.9 NNE 7 11 1008.2 - 0.0 - - - - - - -
30/08:30pm 18.6 NNE 8 12 1008.5 - 0.0 - - - - - - -
30/08:00pm 19.1 NNE 6 9 1008.8 - 0.0 - - - - - - -
30/07:30pm 19.6 N 7 11 1009.0 - 0.0 - - - - - - -
30/07:00pm 19.8 NNE 7 12 1009.2 - 0.0 - - - - - - -
30/06:30pm 20.7 N 8 11 1009.1 - 0.0 - - - - - - -
30/06:00pm 21.4 N 10 15 1008.9 - 0.0 - - - - - - -
30/05:30pm 21.8 N 10 14 1009.1 - 0.0 - - - - - - -
30/05:00pm 22.9 N 10 16 1009.1 - 0.0 - - - - - - -
30/04:30pm 23.0 N 9 13 1009.2 - 0.0 - - - - - - -
30/04:00pm 23.6 N 9 16 1009.4 - 0.0 - - - - - - -
30/03:30pm 24.5 NNW 11 19 1009.5 - 0.0 - - - - - - -
30/03:00pm 24.5 NNW 11 16 1009.5 - 0.0 - - - - - - -
30/02:30pm 23.8 NNW 14 21 1009.8 - 0.0 - - - - - - -
30/02:00pm 23.5 NNW 14 23 1009.9 - 0.0 - - - - - - -
30/01:30pm 24.0 NNW 12 18 1010.2 - 0.0 - - - - - - -
30/01:00pm 23.0 NNW 12 19 1010.7 - 0.0 - - - - - - -
30/12:30pm 23.3 NNW 13 19 1011.2 - 0.0 - - - - - - -
30/12:00pm 22.9 N 12 18 1011.7 - 0.0 - - - - - - -
30/11:30am 23.2 N 11 17 1012.1 - 0.0 - - - - - - -
30/11:00am 22.3 N 10 16 1012.5 - 0.0 - - - - - - -
30/10:30am 21.6 N 12 17 1013.0 - 0.0 - - - - - - -
30/10:00am 20.9 N 12 17 1012.8 - 0.0 - - - - - - -
30/09:30am 20.0 N 10 14 1013.1 - 0.0 - - - - - - -
30/09:00am 18.3 N 9 15 1013.4 - 7.8 - - - - - - -
30/08:30am 15.8 N 4 5 1013.5 - 7.8 - - - - - - -
30/08:00am 16.3 N 4 6 1013.3 - 7.8 - - - - - - -
30/07:30am 15.2 NNE 5 7 1013.2 - 7.8 - - - - - - -
30/07:00am 14.7 N 5 7 1013.1 - 7.8 - - - - - - -
30/06:30am 14.8 N 5 7 1012.8 - 7.8 - - - - - - -
30/06:00am 13.7 N 3 4 1012.9 - 7.8 - - - - - - -
30/05:30am 13.9 NNE 4 6 1012.8 - 7.8 - - - - - - -
30/05:00am 12.6 NNE 3 5 1012.8 - 7.8 - - - - - - -
30/04:30am 10.6 NNW 2 3 1012.7 - 7.8 - - - - - - -
30/04:00am 10.7 CALM 0 0 1012.6 - 7.8 - - - - - - -
30/03:30am 10.9 CALM 0 0 1012.6 - 7.8 - - - - - - -
30/03:00am 11.3 CALM 0 0 1012.9 - 7.8 - - - - - - -
30/02:30am 11.5 CALM 0 0 1013.0 - 7.8 - - - - - - -
30/02:00am 11.6 CALM 0 0 1013.3 - 7.8 - - - - - - -
30/01:30am 12.0 WNW 1 3 1013.3 - 7.8 - - - - - - -
30/01:00am 12.7 CALM 0 0 1013.4 - 7.8 - - - - - - -
30/12:30am 12.7 CALM 0 0 1013.4 - 7.8 - - - - - - -
30/12:00am 13.1 CALM 0 1 1013.5 - 7.8 - - - - - - -
 
Date/Time
EST
Temp

°C
Wind Pressure Rain
since 9am
mm
Weather Cloud Vis
km
Sea
Height
m
Swell
Dir
 
Speed
knots
Gust
knots
hPa Trend Height
m
Period
s
Dir
29/11:30pm 13.5 CALM 0 0 1013.7 - 7.8 - - - - - - -
29/11:00pm 13.7 WSW 3 4 1013.9 - 7.8 - - - - - - -
29/10:30pm 14.6 CALM 0 0 1013.8 - 7.8 - - - - - - -
29/10:00pm 16.4 N 3 5 1013.9 - 7.8 - - - - - - -
29/09:30pm 16.1 NNE 3 4 1013.8 - 7.8 - - - - - - -
29/09:00pm 16.1 NNE 3 4 1013.7 - 7.8 - - - - - - -
29/08:30pm 16.3 NNE 3 4 1013.3 - 7.8 - - - - - - -
29/08:00pm 16.2 N 3 4 1013.2 - 7.8 - - - - - - -
29/07:30pm 16.8 N 4 5 1013.2 - 7.8 - - - - - - -
29/07:00pm 17.1 N 5 7 1012.9 - 7.8 - - - - - - -
29/06:30pm 16.8 NNE 3 5 1012.7 - 7.8 - - - - - - -
29/06:00pm 17.2 NNE 4 5 1012.5 - 7.8 - - - - - - -
29/05:30pm 17.2 NNE 4 6 1012.3 - 7.8 - - - - - - -
29/05:00pm 17.2 N 6 8 1012.2 - 7.8 - - - - - - -
29/04:30pm 17.3 NNE 8 12 1012.3 - 7.8 - - - - - - -
29/04:00pm 17.0 NNE 9 12 1012.1 - 7.8 - - - - - - -
29/03:30pm 16.7 NNE 8 13 1012.4 - 7.8 - - - - - - -
29/03:00pm 16.4 NNE 8 13 1012.6 - 7.8 Recent precip. - - - - - -
29/02:30pm 16.4 NE 9 14 1012.6 - 7.6 - - - - - - -
29/02:00pm 16.4 NNE 9 15 1012.6 - 7.0 - - - - - - -
29/01:30pm 16.4 NE 9 12 1012.5 - 6.8 - - - - - - -
29/01:00pm 16.3 NE 8 11 1012.9 - 6.2 - - - - - - -
29/12:30pm 16.6 NE 4 7 1013.4 - 5.4 - - - - - - -
29/12:00pm 16.8 NNE 4 5 1014.1 - 4.2 Rain - - - - - -

Other Formats:

Comma delimited format used in spreadsheet applications
http://www.bom.gov.au/fwo/IDV60701/IDV60701.94857.axf

JavaScript Object Notation format (JSON) in row-major order
http://www.bom.gov.au/fwo/IDV60701/IDV60701.94857.json